Time,TemperatureF,DewpointF,PressureIn,WindDirection,WindDirectionDegrees,WindSpeedMPH,WindSpeedGustMPH,Humidity,HourlyPrecipIn,Conditions,Clouds,dailyrainin,SoftwareType,DateUTC
2013-07-08 00:01:00,69.5,66.8,30.05,WSW,245,0.0,3.0,91,0.00,,,0.00,WUHU216DAVISVP2,2013-07-08 04:01:00,
2013-07-08 00:06:00,69.5,67.1,30.06,WSW,247,0.0,3.0,92,0.00,,,0.00,WUHU216DAVISVP2,2013-07-08 04:06:00,
2013-07-08 00:11:00,69.3,66.9,30.06,WSW,249,0.0,3.0,92,0.00,,,0.00,WUHU216DAVISVP2,2013-07-08 04:11:00,
2013-07-08 00:16:00,69.2,66.7,30.06,WSW,249,0.0,2.0,92,0.00,,,0.00,WUHU216DAVISVP2,2013-07-08 04:16:00,
2013-07-08 00:21:00,69.1,66.6,30.06,WSW,249,0.0,2.0,92,0.00,,,0.00,WUHU216DAVISVP2,2013-07-08 04:21:00,
2013-07-08 00:26:00,68.9,66.8,30.06,WSW,249,0.0,2.0,93,0.00,,,0.00,WUHU216DAVISVP2,2013-07-08 04:26:00,
2013-07-08 00:31:00,68.7,66.6,30.06,WSW,251,0.0,3.0,93,0.00,,,0.00,WUHU216DAVISVP2,2013-07-08 04:31:00,
2013-07-08 00:36:00,68.5,66.4,30.06,WSW,251,0.0,3.0,93,0.00,,,0.00,WUHU216DAVISVP2,2013-07-08 04:36:00,
2013-07-08 00:41:00,68.3,66.5,30.06,WSW,251,0.0,3.0,94,0.00,,,0.00,WUHU216DAVISVP2,2013-07-08 04:41:00,
2013-07-08 00:46:00,68.0,66.2,30.06,NE,55,0.0,3.0,94,0.00,,,0.00,WUHU216DAVISVP2,2013-07-08 04:46:00,
2013-07-08 00:51:00,67.8,66.0,30.06,NE,55,0.0,3.0,94,0.00,,,0.00,WUHU216DAVISVP2,2013-07-08 04:51:00,
2013-07-08 00:56:00,67.6,66.1,30.06,NE,55,0.0,3.0,95,0.00,,,0.00,WUHU216DAVISVP2,2013-07-08 04:56:00,
2013-07-08 01:01:00,67.4,65.9,30.06,NE,55,0.0,3.0,95,0.00,,,0.00,WUHU216DAVISVP2,2013-07-08 05:01:00,
2013-07-08 01:06:00,67.3,65.8,30.06,NE,55,0.0,0.0,95,0.00,,,0.00,WUHU216DAVISVP2,2013-07-08 05:06:00,
2013-07-08 01:11:00,67.2,65.7,30.06,NE,55,1.0,2.0,95,0.00,,,0.00,WUHU216DAVISVP2,2013-07-08 05:11:00,
2013-07-08 01:16:00,67.0,65.5,30.05,ENE,64,0.0,2.0,95,0.00,,,0.00,WUHU216DAVISVP2,2013-07-08 05:16:00,
2013-07-08 01:21:00,66.9,65.7,30.05,East,89,2.0,3.0,96,0.00,,,0.00,WUHU216DAVISVP2,2013-07-08 05:21:00,
2013-07-08 01:26:00,66.7,65.5,30.05,East,89,0.0,3.0,96,0.00,,,0.00,WUHU216DAVISVP2,2013-07-08 05:26:00,
2013-07-08 01:31:00,66.7,65.5,30.05,East,89,0.0,3.0,96,0.00,,,0.00,WUHU216DAVISVP2,2013-07-08 05:31:00,
2013-07-08 01:36:00,66.6,65.4,30.05,East,89,0.0,3.0,96,0.00,,,0.00,WUHU216DAVISVP2,2013-07-08 05:36:00,
2013-07-08 01:41:00,66.6,65.7,30.05,East,89,0.0,2.0,97,0.00,,,0.00,WUHU216DAVISVP2,2013-07-08 05:41:00,
2013-07-08 01:46:00,66.6,65.7,30.05,East,89,0.0,2.0,97,0.00,,,0.00,WUHU216DAVISVP2,2013-07-08 05:46:00,
2013-07-08 01:51:00,66.7,65.8,30.05,East,89,1.0,1.0,97,0.00,,,0.00,WUHU216DAVISVP2,2013-07-08 05:51:00,
2013-07-08 01:56:00,66.6,65.7,30.05,East,89,0.0,1.0,97,0.00,,,0.00,WUHU216DAVISVP2,2013-07-08 05:56:00,
2013-07-08 02:01:00,66.6,65.7,30.05,East,89,0.0,1.0,97,0.00,,,0.00,WUHU216DAVISVP2,2013-07-08 06:01:00,
2013-07-08 02:06:00,66.5,65.6,30.05,East,89,0.0,1.0,97,0.00,,,0.00,WUHU216DAVISVP2,2013-07-08 06:06:00,
2013-07-08 02:11:00,66.5,65.6,30.05,East,89,0.0,0.0,97,0.00,,,0.00,WUHU216DAVISVP2,2013-07-08 06:11:00,
2013-07-08 02:16:00,66.3,65.4,30.05,East,89,0.0,0.0,97,0.00,,,0.00,WUHU216DAVISVP2,2013-07-08 06:16:00,
2013-07-08 02:21:00,66.3,65.4,30.05,East,89,0.0,1.0,97,0.00,,,0.00,WUHU216DAVISVP2,2013-07-08 06:21:00,
2013-07-08 02:26:00,66.3,65.4,30.06,East,89,0.0,1.0,97,0.00,,,0.00,WUHU216DAVISVP2,2013-07-08 06:26:00,
2013-07-08 02:31:00,66.3,65.4,30.06,East,89,0.0,1.0,97,0.00,,,0.00,WUHU216DAVISVP2,2013-07-08 06:31:00,
2013-07-08 02:36:00,66.2,65.3,30.05,East,89,0.0,1.0,97,0.00,,,0.00,WUHU216DAVISVP2,2013-07-08 06:36:00,
2013-07-08 02:41:00,66.2,65.3,30.05,East,89,0.0,0.0,97,0.00,,,0.00,WUHU216DAVISVP2,2013-07-08 06:41:00,
2013-07-08 02:46:00,66.1,65.2,30.05,East,89,0.0,0.0,97,0.00,,,0.00,WUHU216DAVISVP2,2013-07-08 06:46:00,
2013-07-08 02:51:00,66.0,65.1,30.05,East,89,0.0,0.0,97,0.00,,,0.00,WUHU216DAVISVP2,2013-07-08 06:51:00,
2013-07-08 02:56:00,66.0,65.1,30.05,East,89,0.0,0.0,97,0.00,,,0.00,WUHU216DAVISVP2,2013-07-08 06:56:00,
2013-07-08 03:01:00,65.9,65.0,30.05,East,89,0.0,0.0,97,0.00,,,0.00,WUHU216DAVISVP2,2013-07-08 07:01:00,
2013-07-08 03:06:00,65.9,65.0,30.05,East,89,0.0,0.0,97,0.00,,,0.00,WUHU216DAVISVP2,2013-07-08 07:06:00,
2013-07-08 03:11:00,65.9,65.0,30.05,East,89,0.0,1.0,97,0.00,,,0.00,WUHU216DAVISVP2,2013-07-08 07:11:00,
2013-07-08 03:16:00,65.9,65.0,30.05,East,90,0.0,1.0,97,0.00,,,0.00,WUHU216DAVISVP2,2013-07-08 07:16:00,
2013-07-08 03:21:00,65.8,64.9,30.05,East,89,0.0,1.0,97,0.00,,,0.00,WUHU216DAVISVP2,2013-07-08 07:21:00,
2013-07-08 03:26:00,65.7,64.8,30.05,East,89,0.0,1.0,97,0.00,,,0.00,WUHU216DAVISVP2,2013-07-08 07:26:00,
2013-07-08 03:31:00,65.5,64.6,30.05,East,89,0.0,0.0,97,0.00,,,0.00,WUHU216DAVISVP2,2013-07-08 07:31:00,
2013-07-08 03:36:00,65.3,64.4,30.05,East,89,0.0,0.0,97,0.00,,,0.00,WUHU216DAVISVP2,2013-07-08 07:36:00,
2013-07-08 03:41:00,65.2,64.3,30.05,East,89,0.0,0.0,97,0.00,,,0.00,WUHU216DAVISVP2,2013-07-08 07:41:00,
2013-07-08 03:46:00,65.1,64.2,30.05,East,89,0.0,0.0,97,0.00,,,0.00,WUHU216DAVISVP2,2013-07-08 07:46:00,
2013-07-08 03:51:00,65.0,64.1,30.05,East,89,0.0,1.0,97,0.00,,,0.00,WUHU216DAVISVP2,2013-07-08 07:51:00,
2013-07-08 03:56:00,65.0,64.1,30.05,East,89,0.0,1.0,97,0.00,,,0.00,WUHU216DAVISVP2,2013-07-08 07:56:00,
2013-07-08 04:01:00,65.0,64.4,30.05,East,89,0.0,1.0,98,0.00,,,0.00,WUHU216DAVISVP2,2013-07-08 08:01:00,
2013-07-08 04:06:00,64.9,64.0,30.05,East,89,0.0,1.0,97,0.00,,,0.00,WUHU216DAVISVP2,2013-07-08 08:06:00,
2013-07-08 04:11:00,64.9,64.3,30.05,East,89,0.0,1.0,98,0.00,,,0.00,WUHU216DAVISVP2,2013-07-08 08:11:00,
2013-07-08 04:16:00,64.9,64.3,30.05,East,89,0.0,0.0,98,0.00,,,0.00,WUHU216DAVISVP2,2013-07-08 08:16:00,
2013-07-08 04:21:00,64.9,64.3,30.05,East,89,0.0,0.0,98,0.00,,,0.00,WUHU216DAVISVP2,2013-07-08 08:21:00,
2013-07-08 04:26:00,65.0,64.4,30.04,East,89,0.0,0.0,98,0.00,,,0.00,WUHU216DAVISVP2,2013-07-08 08:26:00,
2013-07-08 04:31:00,65.0,64.4,30.05,East,89,0.0,0.0,98,0.00,,,0.00,WUHU216DAVISVP2,2013-07-08 08:31:00,
2013-07-08 04:36:00,65.0,64.4,30.05,East,89,0.0,0.0,98,0.00,,,0.00,WUHU216DAVISVP2,2013-07-08 08:36:00,
2013-07-08 04:41:00,65.0,64.4,30.05,East,89,0.0,0.0,98,0.00,,,0.00,WUHU216DAVISVP2,2013-07-08 08:41:00,
2013-07-08 04:46:00,65.0,64.4,30.05,East,89,0.0,0.0,98,0.00,,,0.00,WUHU216DAVISVP2,2013-07-08 08:46:00,
2013-07-08 04:51:00,65.0,64.4,30.05,East,89,0.0,0.0,98,0.00,,,0.00,WUHU216DAVISVP2,2013-07-08 08:51:00,
2013-07-08 04:56:00,65.0,64.4,30.05,East,89,0.0,0.0,98,0.00,,,0.00,WUHU216DAVISVP2,2013-07-08 08:56:00,
2013-07-08 05:01:00,65.0,64.4,30.05,East,89,0.0,0.0,98,0.00,,,0.00,WUHU216DAVISVP2,2013-07-08 09:01:00,
2013-07-08 05:06:00,65.0,64.4,30.05,East,89,0.0,0.0,98,0.00,,,0.00,WUHU216DAVISVP2,2013-07-08 09:06:00,
2013-07-08 05:11:00,65.1,64.5,30.05,East,89,0.0,0.0,98,0.00,,,0.00,WUHU216DAVISVP2,2013-07-08 09:11:00,
2013-07-08 05:16:00,65.1,64.5,30.05,East,89,0.0,0.0,98,0.00,,,0.00,WUHU216DAVISVP2,2013-07-08 09:16:00,
2013-07-08 05:21:00,65.1,64.5,30.05,East,89,0.0,0.0,98,0.00,,,0.00,WUHU216DAVISVP2,2013-07-08 09:21:00,
2013-07-08 05:26:00,65.0,64.4,30.05,East,89,0.0,0.0,98,0.00,,,0.00,WUHU216DAVISVP2,2013-07-08 09:26:00,
2013-07-08 05:31:00,65.0,64.4,30.05,East,89,0.0,0.0,98,0.00,,,0.00,WUHU216DAVISVP2,2013-07-08 09:31:00,
2013-07-08 05:36:00,65.0,64.4,30.05,East,89,0.0,0.0,98,0.00,,,0.00,WUHU216DAVISVP2,2013-07-08 09:36:00,
2013-07-08 05:41:00,65.0,64.4,30.05,East,89,0.0,0.0,98,0.00,,,0.00,WUHU216DAVISVP2,2013-07-08 09:41:00,
2013-07-08 05:46:00,65.0,64.4,30.06,East,89,0.0,0.0,98,0.00,,,0.00,WUHU216DAVISVP2,2013-07-08 09:46:00,
2013-07-08 05:51:00,65.0,64.4,30.06,East,89,0.0,0.0,98,0.00,,,0.00,WUHU216DAVISVP2,2013-07-08 09:51:00,
2013-07-08 05:56:00,65.0,64.4,30.06,East,89,0.0,1.0,98,0.00,,,0.00,WUHU216DAVISVP2,2013-07-08 09:56:00,
2013-07-08 06:01:00,65.0,64.4,30.06,East,89,0.0,1.0,98,0.00,,,0.00,WUHU216DAVISVP2,2013-07-08 10:01:00,
2013-07-08 06:06:00,65.0,64.4,30.06,East,90,0.0,2.0,98,0.00,,,0.00,WUHU216DAVISVP2,2013-07-08 10:06:00,
2013-07-08 06:11:00,65.0,64.4,30.06,East,90,0.0,2.0,98,0.00,,,0.00,WUHU216DAVISVP2,2013-07-08 10:11:00,
2013-07-08 06:16:00,64.9,64.3,30.06,East,90,0.0,2.0,98,0.00,,,0.00,WUHU216DAVISVP2,2013-07-08 10:16:00,
2013-07-08 06:21:00,64.9,64.6,30.06,East,90,0.0,2.0,99,0.00,,,0.00,WUHU216DAVISVP2,2013-07-08 10:21:00,
2013-07-08 06:26:00,65.0,64.7,30.06,East,90,0.0,0.0,99,0.00,,,0.00,WUHU216DAVISVP2,2013-07-08 10:26:00,
2013-07-08 06:31:00,65.0,64.7,30.06,East,90,0.0,0.0,99,0.00,,,0.00,WUHU216DAVISVP2,2013-07-08 10:31:00,
2013-07-08 06:36:00,65.0,64.7,30.07,East,90,0.0,1.0,99,0.00,,,0.00,WUHU216DAVISVP2,2013-07-08 10:36:00,
2013-07-08 06:41:00,65.0,64.7,30.07,SSW,206,0.0,1.0,99,0.00,,,0.00,WUHU216DAVISVP2,2013-07-08 10:41:00,
2013-07-08 06:46:00,65.0,64.7,30.07,SSE,152,0.0,1.0,99,0.00,,,0.00,WUHU216DAVISVP2,2013-07-08 10:46:00,
2013-07-08 06:51:00,64.9,64.6,30.07,SSW,208,0.0,1.0,99,0.00,,,0.00,WUHU216DAVISVP2,2013-07-08 10:51:00,
2013-07-08 06:56:00,64.9,64.6,30.07,SSW,207,0.0,0.0,99,0.00,,,0.00,WUHU216DAVISVP2,2013-07-08 10:56:00,
2013-07-08 07:01:00,64.9,64.6,30.07,SSW,208,0.0,1.0,99,0.00,,,0.00,WUHU216DAVISVP2,2013-07-08 11:01:00,
2013-07-08 07:06:00,64.9,64.6,30.07,SSW,208,0.0,1.0,99,0.00,,,0.00,WUHU216DAVISVP2,2013-07-08 11:06:00,
2013-07-08 07:11:00,65.1,64.8,30.07,SSW,208,0.0,1.0,99,0.00,,,0.00,WUHU216DAVISVP2,2013-07-08 11:11:00,
2013-07-08 07:16:00,65.2,64.9,30.07,SSW,208,0.0,1.0,99,0.00,,,0.00,WUHU216DAVISVP2,2013-07-08 11:16:00,
2013-07-08 07:21:00,65.3,65.0,30.07,SSW,208,0.0,1.0,99,0.00,,,0.00,WUHU216DAVISVP2,2013-07-08 11:21:00,
2013-07-08 07:26:00,65.5,65.2,30.07,SSW,208,0.0,1.0,99,0.00,,,0.00,WUHU216DAVISVP2,2013-07-08 11:26:00,
2013-07-08 07:31:00,65.6,65.3,30.07,SSW,208,0.0,1.0,99,0.00,,,0.00,WUHU216DAVISVP2,2013-07-08 11:31:00,
2013-07-08 07:36:00,65.7,65.4,30.08,SSW,208,0.0,1.0,99,0.00,,,0.00,WUHU216DAVISVP2,2013-07-08 11:36:00,
2013-07-08 07:41:00,65.8,65.5,30.08,SSW,208,0.0,1.0,99,0.00,,,0.00,WUHU216DAVISVP2,2013-07-08 11:41:00,
2013-07-08 07:46:00,65.9,65.6,30.08,SSW,208,0.0,0.0,99,0.00,,,0.00,WUHU216DAVISVP2,2013-07-08 11:46:00,
2013-07-08 07:51:00,65.9,65.6,30.08,SSW,208,0.0,1.0,99,0.00,,,0.00,WUHU216DAVISVP2,2013-07-08 11:51:00,
2013-07-08 07:56:00,65.8,65.2,30.08,SSW,208,0.0,2.0,98,0.00,,,0.00,WUHU216DAVISVP2,2013-07-08 11:56:00,
2013-07-08 08:01:00,65.8,65.2,30.08,SSW,208,0.0,2.0,98,0.00,,,0.00,WUHU216DAVISVP2,2013-07-08 12:01:00,
2013-07-08 08:06:00,65.8,65.2,30.08,SSW,208,0.0,2.0,98,0.00,,,0.00,WUHU216DAVISVP2,2013-07-08 12:06:00,
2013-07-08 08:11:00,65.8,65.2,30.09,SSW,208,0.0,2.0,98,0.00,,,0.00,WUHU216DAVISVP2,2013-07-08 12:11:00,
2013-07-08 08:16:00,65.8,64.9,30.08,SSW,204,2.0,6.0,97,0.00,,,0.00,WUHU216DAVISVP2,2013-07-08 12:16:00,
2013-07-08 08:21:00,65.8,64.9,30.08,SSW,212,0.0,6.0,97,0.00,,,0.00,WUHU216DAVISVP2,2013-07-08 12:21:00,
2013-07-08 08:26:00,65.9,64.7,30.09,WSW,240,2.0,6.0,96,0.00,,,0.00,WUHU216DAVISVP2,2013-07-08 12:26:00,
2013-07-08 08:31:00,66.1,64.6,30.09,WNW,301,0.0,6.0,95,0.00,,,0.00,WUHU216DAVISVP2,2013-07-08 12:31:00,
2013-07-08 08:36:00,66.5,65.0,30.09,WNW,301,0.0,2.0,95,0.00,,,0.00,WUHU216DAVISVP2,2013-07-08 12:36:00,
2013-07-08 08:41:00,66.9,65.7,30.09,WNW,301,1.0,2.0,96,0.00,,,0.00,WUHU216DAVISVP2,2013-07-08 12:41:00,
2013-07-08 08:46:00,67.4,65.0,30.09,WNW,301,0.0,2.0,92,0.00,,,0.00,WUHU216DAVISVP2,2013-07-08 12:46:00,
2013-07-08 08:51:00,67.7,65.3,30.09,NW,308,0.0,2.0,92,0.00,,,0.00,WUHU216DAVISVP2,2013-07-08 12:51:00,
2013-07-08 08:56:00,68.1,65.3,30.09,NW,308,0.0,2.0,91,0.00,,,0.00,WUHU216DAVISVP2,2013-07-08 12:56:00,
2013-07-08 09:01:00,68.5,65.4,30.09,NW,310,1.0,2.0,90,0.00,,,0.00,WUHU216DAVISVP2,2013-07-08 13:01:00,
2013-07-08 09:06:00,68.9,65.5,30.09,NW,311,1.0,2.0,89,0.00,,,0.00,WUHU216DAVISVP2,2013-07-08 13:06:00,
2013-07-08 09:11:00,69.2,66.1,30.10,NW,311,0.0,2.0,90,0.00,,,0.00,WUHU216DAVISVP2,2013-07-08 13:11:00,
2013-07-08 09:16:00,69.4,66.0,30.10,NW,308,0.0,2.0,89,0.00,,,0.00,WUHU216DAVISVP2,2013-07-08 13:16:00,
2013-07-08 09:21:00,69.8,66.1,30.10,NW,314,0.0,2.0,88,0.00,,,0.00,WUHU216DAVISVP2,2013-07-08 13:21:00,
2013-07-08 09:26:00,70.2,66.2,30.10,East,82,0.0,3.0,87,0.00,,,0.00,WUHU216DAVISVP2,2013-07-08 13:26:00,
2013-07-08 09:31:00,70.4,65.7,30.10,East,90,1.0,3.0,85,0.00,,,0.00,WUHU216DAVISVP2,2013-07-08 13:31:00,
2013-07-08 09:36:00,70.6,65.6,30.10,East,100,0.0,3.0,84,0.00,,,0.00,WUHU216DAVISVP2,2013-07-08 13:36:00,
2013-07-08 09:41:00,70.7,66.0,30.10,ESE,103,0.0,3.0,85,0.00,,,0.00,WUHU216DAVISVP2,2013-07-08 13:41:00,
2013-07-08 09:46:00,71.1,67.0,30.10,ESE,103,0.0,3.0,87,0.00,,,0.00,WUHU216DAVISVP2,2013-07-08 13:46:00,
2013-07-08 09:51:00,71.4,66.7,30.10,ESE,104,0.0,3.0,85,0.00,,,0.00,WUHU216DAVISVP2,2013-07-08 13:51:00,
2013-07-08 09:56:00,71.5,66.1,30.10,ESE,104,0.0,3.0,83,0.00,,,0.00,WUHU216DAVISVP2,2013-07-08 13:56:00,
2013-07-08 10:01:00,71.8,65.7,30.10,ESE,104,0.0,2.0,81,0.00,,,0.00,WUHU216DAVISVP2,2013-07-08 14:01:00,
2013-07-08 10:06:00,72.1,66.4,30.10,ENE,69,0.0,3.0,82,0.00,,,0.00,WUHU216DAVISVP2,2013-07-08 14:06:00,
2013-07-08 10:11:00,72.4,66.0,30.09,NNW,332,3.0,3.0,80,0.00,,,0.00,WUHU216DAVISVP2,2013-07-08 14:11:00,
2013-07-08 10:16:00,72.8,65.3,30.10,NNE,15,1.0,6.0,77,0.00,,,0.00,WUHU216DAVISVP2,2013-07-08 14:16:00,
2013-07-08 10:21:00,72.9,65.8,30.10,NNW,343,2.0,7.0,78,0.00,,,0.00,WUHU216DAVISVP2,2013-07-08 14:21:00,
2013-07-08 10:26:00,73.2,65.7,30.10,WSW,254,4.0,8.0,77,0.00,,,0.00,WUHU216DAVISVP2,2013-07-08 14:26:00,
2013-07-08 10:31:00,73.5,66.0,30.10,North,8,3.0,10.0,77,0.00,,,0.00,WUHU216DAVISVP2,2013-07-08 14:31:00,
2013-07-08 10:36:00,73.7,66.2,30.10,WSW,252,8.0,11.0,77,0.00,,,0.00,WUHU216DAVISVP2,2013-07-08 14:36:00,
2013-07-08 10:41:00,73.8,65.5,30.10,WNW,292,3.0,12.0,75,0.00,,,0.00,WUHU216DAVISVP2,2013-07-08 14:41:00,
2013-07-08 10:46:00,74.0,65.7,30.10,NW,319,1.0,12.0,75,0.00,,,0.00,WUHU216DAVISVP2,2013-07-08 14:46:00,
2013-07-08 10:51:00,74.2,65.9,30.10,WNW,291,3.0,12.0,75,0.00,,,0.00,WUHU216DAVISVP2,2013-07-08 14:51:00,
2013-07-08 10:56:00,74.5,66.2,30.09,SW,224,2.0,11.0,75,0.00,,,0.00,WUHU216DAVISVP2,2013-07-08 14:56:00,
2013-07-08 11:01:00,74.9,66.2,30.09,SW,227,5.0,11.0,74,0.00,,,0.00,WUHU216DAVISVP2,2013-07-08 15:01:00,
2013-07-08 11:06:00,75.2,66.1,30.09,SSW,205,8.0,10.0,73,0.00,,,0.00,WUHU216DAVISVP2,2013-07-08 15:06:00,
2013-07-08 11:11:00,75.4,66.7,30.09,WSW,253,3.0,11.0,74,0.00,,,0.00,WUHU216DAVISVP2,2013-07-08 15:11:00,
2013-07-08 11:16:00,75.7,66.6,30.09,SW,229,5.0,11.0,73,0.00,,,0.00,WUHU216DAVISVP2,2013-07-08 15:16:00,
2013-07-08 11:21:00,76.0,66.1,30.09,WSW,240,5.0,11.0,71,0.00,,,0.00,WUHU216DAVISVP2,2013-07-08 15:21:00,
2013-07-08 11:26:00,76.3,66.0,30.09,SW,222,3.0,9.0,70,0.00,,,0.00,WUHU216DAVISVP2,2013-07-08 15:26:00,
2013-07-08 11:31:00,76.4,66.5,30.09,WSW,255,4.0,9.0,71,0.00,,,0.00,WUHU216DAVISVP2,2013-07-08 15:31:00,
2013-07-08 11:36:00,76.1,66.4,30.09,SW,218,3.0,9.0,72,0.00,,,0.00,WUHU216DAVISVP2,2013-07-08 15:36:00,
2013-07-08 11:41:00,76.3,65.4,30.09,SSW,192,6.0,8.0,69,0.00,,,0.00,WUHU216DAVISVP2,2013-07-08 15:41:00,
2013-07-08 11:46:00,76.7,65.8,30.09,WNW,301,3.0,7.0,69,0.00,,,0.00,WUHU216DAVISVP2,2013-07-08 15:46:00,
2013-07-08 11:51:00,77.3,66.3,30.09,SW,227,3.0,7.0,69,0.00,,,0.00,WUHU216DAVISVP2,2013-07-08 15:51:00,
2013-07-08 11:56:00,77.5,66.3,30.09,WSW,257,7.0,7.0,68,0.00,,,0.00,WUHU216DAVISVP2,2013-07-08 15:56:00,
2013-07-08 12:01:00,77.8,67.0,30.09,SSW,211,2.0,9.0,69,0.00,,,0.00,WUHU216DAVISVP2,2013-07-08 16:01:00,
2013-07-08 12:06:00,78.1,66.0,30.09,South,191,5.0,9.0,66,0.00,,,0.00,WUHU216DAVISVP2,2013-07-08 16:06:00,
2013-07-08 12:11:00,77.8,65.8,30.09,SE,141,2.0,13.0,66,0.00,,,0.00,WUHU216DAVISVP2,2013-07-08 16:11:00,
2013-07-08 12:16:00,77.3,65.3,30.08,WNW,301,5.0,13.0,66,0.00,,,0.00,WUHU216DAVISVP2,2013-07-08 16:16:00,
2013-07-08 12:21:00,77.1,65.9,30.08,North,359,0.0,13.0,68,0.00,,,0.00,WUHU216DAVISVP2,2013-07-08 16:21:00,
2013-07-08 12:26:00,77.7,67.3,30.08,WNW,301,2.0,13.0,70,0.00,,,0.00,WUHU216DAVISVP2,2013-07-08 16:26:00,
2013-07-08 12:31:00,78.0,66.0,30.08,SW,216,3.0,10.0,66,0.00,,,0.00,WUHU216DAVISVP2,2013-07-08 16:31:00,
2013-07-08 12:36:00,78.2,66.1,30.08,South,188,8.0,10.0,66,0.00,,,0.00,WUHU216DAVISVP2,2013-07-08 16:36:00,
2013-07-08 12:41:00,78.2,66.6,30.08,SW,233,3.0,10.0,67,0.00,,,0.00,WUHU216DAVISVP2,2013-07-08 16:41:00,
2013-07-08 12:46:00,78.5,67.3,30.08,WSW,237,4.0,10.0,68,0.00,,,0.00,WUHU216DAVISVP2,2013-07-08 16:46:00,
2013-07-08 12:51:00,78.9,67.2,30.08,SW,228,5.0,10.0,67,0.00,,,0.00,WUHU216DAVISVP2,2013-07-08 16:51:00,
2013-07-08 12:57:00,79.3,67.6,30.08,SSW,208,10.0,10.0,67,0.00,,,0.00,WUHU216DAVISVP2,2013-07-08 16:57:00,
2013-07-08 13:02:00,79.0,68.6,30.08,North,350,2.0,11.0,70,0.00,,,0.00,WUHU216DAVISVP2,2013-07-08 17:02:00,
2013-07-08 13:07:00,78.9,65.5,30.08,NW,304,1.0,11.0,63,0.00,,,0.00,WUHU216DAVISVP2,2013-07-08 17:07:00,
2013-07-08 13:12:00,78.9,66.4,30.08,WSW,248,5.0,11.0,65,0.00,,,0.00,WUHU216DAVISVP2,2013-07-08 17:12:00,
2013-07-08 13:17:00,78.9,65.9,30.08,West,276,2.0,11.0,64,0.00,,,0.00,WUHU216DAVISVP2,2013-07-08 17:17:00,
2013-07-08 13:23:00,78.8,66.7,30.08,SW,232,3.0,7.0,66,0.00,,,0.00,WUHU216DAVISVP2,2013-07-08 17:23:00,
2013-07-08 13:28:00,79.2,67.1,30.08,NW,305,4.0,7.0,66,0.00,,,0.00,WUHU216DAVISVP2,2013-07-08 17:28:00,
2013-07-08 13:33:00,79.7,68.0,30.08,WSW,238,3.0,8.0,67,0.00,,,0.00,WUHU216DAVISVP2,2013-07-08 17:33:00,
2013-07-08 13:38:00,79.9,66.9,30.07,NNW,343,1.0,8.0,64,0.00,,,0.00,WUHU216DAVISVP2,2013-07-08 17:38:00,
2013-07-08 13:43:00,79.6,67.5,30.07,SSW,208,3.0,8.0,66,0.00,,,0.00,WUHU216DAVISVP2,2013-07-08 17:43:00,
2013-07-08 13:48:00,79.5,67.4,30.07,SW,221,3.0,9.0,66,0.00,,,0.00,WUHU216DAVISVP2,2013-07-08 17:48:00,
2013-07-08 13:54:00,79.7,66.4,30.07,West,269,3.0,9.0,64,0.00,,,0.00,WUHU216DAVISVP2,2013-07-08 17:54:00,
2013-07-08 13:59:00,80.1,65.9,30.06,SSW,193,5.0,11.0,62,0.00,,,0.00,WUHU216DAVISVP2,2013-07-08 17:59:00,
2013-07-08 14:04:00,80.2,66.5,30.06,WNW,296,0.0,11.0,63,0.00,,,0.00,WUHU216DAVISVP2,2013-07-08 18:04:00,
2013-07-08 14:10:00,79.9,66.9,30.07,WNW,290,3.0,10.0,64,0.00,,,0.00,WUHU216DAVISVP2,2013-07-08 18:10:00,
2013-07-08 14:15:00,79.6,67.5,30.07,NW,320,4.0,10.0,66,0.00,,,0.00,WUHU216DAVISVP2,2013-07-08 18:15:00,
2013-07-08 14:20:00,80.0,67.0,30.06,WSW,241,0.0,10.0,64,0.00,,,0.00,WUHU216DAVISVP2,2013-07-08 18:20:00,
2013-07-08 14:26:00,80.3,67.7,30.06,SW,224,3.0,10.0,65,0.00,,,0.00,WUHU216DAVISVP2,2013-07-08 18:26:00,
2013-07-08 14:31:00,80.2,68.1,30.06,SSW,209,4.0,12.0,66,0.00,,,0.00,WUHU216DAVISVP2,2013-07-08 18:31:00,
2013-07-08 14:37:00,80.6,66.6,30.06,WNW,283,2.0,12.0,62,0.00,,,0.00,WUHU216DAVISVP2,2013-07-08 18:37:00,
2013-07-08 14:42:00,81.0,67.0,30.06,WSW,256,7.0,12.0,62,0.00,,,0.00,WUHU216DAVISVP2,2013-07-08 18:42:00,
2013-07-08 14:47:00,80.7,67.2,30.06,SW,222,5.0,10.0,63,0.00,,,0.00,WUHU216DAVISVP2,2013-07-08 18:47:00,
2013-07-08 14:53:00,80.5,67.0,30.06,West,264,4.0,10.0,63,0.00,,,0.00,WUHU216DAVISVP2,2013-07-08 18:53:00,
2013-07-08 14:58:00,80.8,67.3,30.05,WNW,292,1.0,8.0,63,0.00,,,0.00,WUHU216DAVISVP2,2013-07-08 18:58:00,
2013-07-08 15:04:00,81.2,67.7,30.05,WSW,251,4.0,8.0,63,0.00,,,0.00,WUHU216DAVISVP2,2013-07-08 19:04:00,
2013-07-08 15:10:00,81.8,67.3,30.05,NNW,348,1.0,7.0,61,0.00,,,0.00,WUHU216DAVISVP2,2013-07-08 19:10:00,
2013-07-08 15:15:00,81.8,68.2,30.05,West,272,0.0,7.0,63,0.00,,,0.00,WUHU216DAVISVP2,2013-07-08 19:15:00,
2013-07-08 15:20:00,81.3,67.3,30.05,WNW,303,1.0,7.0,62,0.00,,,0.00,WUHU216DAVISVP2,2013-07-08 19:20:00,
2013-07-08 15:26:00,81.1,67.6,30.05,NW,304,4.0,7.0,63,0.00,,,0.00,WUHU216DAVISVP2,2013-07-08 19:26:00,
2013-07-08 15:31:00,80.6,67.5,30.05,SSW,212,2.0,7.0,64,0.00,,,0.00,WUHU216DAVISVP2,2013-07-08 19:31:00,
2013-07-08 15:36:00,80.4,68.2,30.05,SW,219,2.0,7.0,66,0.00,,,0.00,WUHU216DAVISVP2,2013-07-08 19:36:00,
2013-07-08 15:41:00,80.4,67.8,30.04,SW,228,4.0,7.0,65,0.00,,,0.00,WUHU216DAVISVP2,2013-07-08 19:41:00,
2013-07-08 15:47:00,80.4,67.4,30.04,SSW,212,4.0,8.0,64,0.00,,,0.00,WUHU216DAVISVP2,2013-07-08 19:47:00,
2013-07-08 15:52:00,80.5,68.3,30.04,WNW,293,5.0,8.0,66,0.00,,,0.00,WUHU216DAVISVP2,2013-07-08 19:52:00,
2013-07-08 15:58:00,80.9,67.4,30.04,West,269,3.0,7.0,63,0.00,,,0.00,WUHU216DAVISVP2,2013-07-08 19:58:00,
2013-07-08 16:03:00,81.5,68.4,30.04,North,4,6.0,9.0,64,0.00,,,0.00,WUHU216DAVISVP2,2013-07-08 20:03:00,
2013-07-08 16:08:00,82.0,67.5,30.04,NNW,343,1.0,9.0,61,0.00,,,0.00,WUHU216DAVISVP2,2013-07-08 20:08:00,
2013-07-08 16:14:00,82.0,67.0,30.03,West,276,0.0,9.0,60,0.00,,,0.00,WUHU216DAVISVP2,2013-07-08 20:14:00,
2013-07-08 16:19:00,82.2,67.4,30.03,SW,223,5.0,9.0,61,0.00,,,0.00,WUHU216DAVISVP2,2013-07-08 20:19:00,
2013-07-08 16:24:00,82.0,67.2,30.03,SSW,208,4.0,10.0,61,0.00,,,0.00,WUHU216DAVISVP2,2013-07-08 20:24:00,
2013-07-08 16:29:00,82.0,67.7,30.03,NNW,332,4.0,10.0,62,0.00,,,0.00,WUHU216DAVISVP2,2013-07-08 20:29:00,
2013-07-08 16:35:00,82.5,67.2,30.03,West,278,2.0,10.0,60,0.00,,,0.00,WUHU216DAVISVP2,2013-07-08 20:35:00,
2013-07-08 16:40:00,82.8,68.0,30.03,WNW,283,5.0,9.0,61,0.00,,,0.00,WUHU216DAVISVP2,2013-07-08 20:40:00,
2013-07-08 16:46:00,83.1,67.8,30.03,NW,310,2.0,7.0,60,0.00,,,0.00,WUHU216DAVISVP2,2013-07-08 20:46:00,
2013-07-08 16:51:00,83.1,67.8,30.03,SW,236,3.0,9.0,60,0.00,,,0.00,WUHU216DAVISVP2,2013-07-08 20:51:00,
2013-07-08 16:56:00,82.9,68.1,30.03,WSW,241,0.0,9.0,61,0.00,,,0.00,WUHU216DAVISVP2,2013-07-08 20:56:00,
2013-07-08 17:02:00,82.9,68.1,30.03,SW,224,4.0,9.0,61,0.00,,,0.00,WUHU216DAVISVP2,2013-07-08 21:02:00,
2013-07-08 17:07:00,82.6,67.8,30.03,SSW,192,2.0,9.0,61,0.00,,,0.00,WUHU216DAVISVP2,2013-07-08 21:07:00,
2013-07-08 17:13:00,82.7,68.1,30.03,NW,315,5.0,8.0,61,0.00,,,0.00,WUHU216DAVISVP2,2013-07-08 21:13:00,
2013-07-08 17:18:00,82.8,68.2,30.03,West,279,4.0,8.0,61,0.00,,,0.00,WUHU216DAVISVP2,2013-07-08 21:18:00,
2013-07-08 17:24:00,82.9,68.3,30.03,West,276,3.0,8.0,61,0.00,,,0.00,WUHU216DAVISVP2,2013-07-08 21:24:00,
2013-07-08 17:29:00,82.8,68.7,30.03,SSW,198,6.0,8.0,62,0.00,,,0.00,WUHU216DAVISVP2,2013-07-08 21:29:00,
2013-07-08 17:34:00,82.4,68.3,30.03,WNW,301,1.0,8.0,62,0.00,,,0.00,WUHU216DAVISVP2,2013-07-08 21:34:00,
2013-07-08 17:39:00,82.2,68.6,30.03,NW,306,1.0,8.0,63,0.00,,,0.00,WUHU216DAVISVP2,2013-07-08 21:39:00,
2013-07-08 17:45:00,82.1,68.3,30.03,West,263,4.0,9.0,63,0.00,,,0.00,WUHU216DAVISVP2,2013-07-08 21:45:00,
2013-07-08 17:50:00,82.1,67.8,30.03,South,189,2.0,9.0,62,0.00,,,0.00,WUHU216DAVISVP2,2013-07-08 21:50:00,
2013-07-08 17:55:00,82.0,68.2,30.03,SW,227,3.0,9.0,63,0.00,,,0.00,WUHU216DAVISVP2,2013-07-08 21:55:00,
2013-07-08 18:01:00,81.7,68.8,30.03,SW,235,4.0,9.0,65,0.00,,,0.00,WUHU216DAVISVP2,2013-07-08 22:01:00,
2013-07-08 18:06:00,81.5,69.0,30.03,SW,224,3.0,8.0,66,0.00,,,0.00,WUHU216DAVISVP2,2013-07-08 22:06:00,
2013-07-08 18:12:00,81.5,68.4,30.03,SSW,197,1.0,9.0,64,0.00,,,0.00,WUHU216DAVISVP2,2013-07-08 22:12:00,
2013-07-08 18:17:00,81.3,68.7,30.02,SW,227,7.0,9.0,65,0.00,,,0.00,WUHU216DAVISVP2,2013-07-08 22:17:00,
2013-07-08 18:22:00,80.8,68.2,30.02,West,264,1.0,9.0,65,0.00,,,0.00,WUHU216DAVISVP2,2013-07-08 22:22:00,
2013-07-08 18:27:00,80.9,69.2,30.02,West,272,0.0,9.0,67,0.00,,,0.00,WUHU216DAVISVP2,2013-07-08 22:27:00,
2013-07-08 18:33:00,81.1,69.3,30.02,SW,227,2.0,9.0,67,0.00,,,0.00,WUHU216DAVISVP2,2013-07-08 22:33:00,
2013-07-08 18:38:00,81.1,68.9,30.02,South,183,3.0,8.0,66,0.00,,,0.00,WUHU216DAVISVP2,2013-07-08 22:38:00,
2013-07-08 18:43:00,80.9,68.7,30.02,SSW,201,4.0,7.0,66,0.00,,,0.00,WUHU216DAVISVP2,2013-07-08 22:43:00,
2013-07-08 18:48:00,80.5,68.8,30.02,SSW,197,6.0,7.0,67,0.00,,,0.00,WUHU216DAVISVP2,2013-07-08 22:48:00,
2013-07-08 18:54:00,79.8,69.0,30.03,SSW,206,3.0,7.0,69,0.00,,,0.00,WUHU216DAVISVP2,2013-07-08 22:54:00,
2013-07-08 18:59:00,79.5,69.1,30.02,SSW,205,3.0,7.0,70,0.00,,,0.00,WUHU216DAVISVP2,2013-07-08 22:59:00,
2013-07-08 19:04:00,79.5,69.1,30.02,SW,216,4.0,7.0,70,0.00,,,0.00,WUHU216DAVISVP2,2013-07-08 23:04:00,
2013-07-08 19:10:00,79.6,69.2,30.02,SW,216,0.0,6.0,70,0.00,,,0.00,WUHU216DAVISVP2,2013-07-08 23:10:00,
2013-07-08 19:15:00,79.6,69.6,30.02,SSW,206,3.0,6.0,71,0.00,,,0.00,WUHU216DAVISVP2,2013-07-08 23:15:00,
2013-07-08 19:20:00,79.6,69.6,30.02,SSW,204,5.0,6.0,71,0.00,,,0.00,WUHU216DAVISVP2,2013-07-08 23:20:00,
2013-07-08 19:25:00,79.8,69.8,30.02,South,189,0.0,6.0,71,0.00,,,0.00,WUHU216DAVISVP2,2013-07-08 23:25:00,
2013-07-08 19:30:00,79.9,69.5,30.02,SW,215,2.0,6.0,70,0.00,,,0.00,WUHU216DAVISVP2,2013-07-08 23:30:00,
2013-07-08 19:35:00,79.8,69.4,30.03,West,260,1.0,6.0,70,0.00,,,0.00,WUHU216DAVISVP2,2013-07-08 23:35:00,
2013-07-08 19:41:00,79.6,69.6,30.03,WSW,247,2.0,4.0,71,0.00,,,0.00,WUHU216DAVISVP2,2013-07-08 23:41:00,
2013-07-08 19:47:00,79.6,70.0,30.03,WSW,247,0.0,4.0,72,0.00,,,0.00,WUHU216DAVISVP2,2013-07-08 23:47:00,
2013-07-08 19:53:00,79.4,70.2,30.03,SW,235,0.0,3.0,73,0.00,,,0.00,WUHU216DAVISVP2,2013-07-08 23:53:00,
2013-07-08 19:58:00,79.2,70.0,30.03,SSW,209,2.0,2.0,73,0.00,,,0.00,WUHU216DAVISVP2,2013-07-08 23:58:00,
2013-07-08 20:03:00,78.9,70.1,30.03,SSW,209,0.0,2.0,74,0.00,,,0.00,WUHU216DAVISVP2,2013-07-09 00:03:00,
2013-07-08 20:08:00,78.5,69.7,30.04,SSW,209,0.0,2.0,74,0.00,,,0.00,WUHU216DAVISVP2,2013-07-09 00:08:00,
2013-07-08 20:14:00,78.2,69.8,30.04,SSW,209,0.0,2.0,75,0.00,,,0.00,WUHU216DAVISVP2,2013-07-09 00:14:00,
2013-07-08 20:20:00,77.8,69.8,30.04,SSW,209,0.0,1.0,76,0.00,,,0.00,WUHU216DAVISVP2,2013-07-09 00:20:00,
2013-07-08 20:25:00,77.4,69.8,30.04,SSW,209,0.0,1.0,77,0.00,,,0.00,WUHU216DAVISVP2,2013-07-09 00:25:00,
2013-07-08 20:30:00,77.1,69.8,30.05,SSW,210,0.0,1.0,78,0.00,,,0.00,WUHU216DAVISVP2,2013-07-09 00:30:00,
2013-07-08 20:35:00,76.6,69.7,30.05,SSW,209,0.0,1.0,79,0.00,,,0.00,WUHU216DAVISVP2,2013-07-09 00:35:00,
2013-07-08 20:40:00,76.1,69.6,30.05,SSW,209,0.0,1.0,80,0.00,,,0.00,WUHU216DAVISVP2,2013-07-09 00:40:00,
2013-07-08 20:46:00,75.6,69.4,30.05,SSW,209,0.0,1.0,81,0.00,,,0.00,WUHU216DAVISVP2,2013-07-09 00:46:00,
2013-07-08 20:51:00,75.1,69.3,30.05,SSW,209,0.0,1.0,82,0.00,,,0.00,WUHU216DAVISVP2,2013-07-09 00:51:00,
2013-07-08 20:56:00,74.8,69.4,30.05,SSW,209,0.0,1.0,83,0.00,,,0.00,WUHU216DAVISVP2,2013-07-09 00:56:00,
2013-07-08 21:01:00,74.4,69.3,30.05,SSW,209,0.0,1.0,84,0.00,,,0.00,WUHU216DAVISVP2,2013-07-09 01:01:00,
2013-07-08 21:07:00,74.0,69.2,30.05,SSW,209,0.0,1.0,85,0.00,,,0.00,WUHU216DAVISVP2,2013-07-09 01:07:00,
2013-07-08 21:12:00,73.7,68.9,30.05,SSW,209,0.0,1.0,85,0.00,,,0.00,WUHU216DAVISVP2,2013-07-09 01:12:00,
2013-07-08 21:17:00,73.6,69.2,30.05,SSW,209,0.0,1.0,86,0.00,,,0.00,WUHU216DAVISVP2,2013-07-09 01:17:00,
2013-07-08 21:22:00,73.2,69.1,30.05,SSW,209,0.0,0.0,87,0.00,,,0.00,WUHU216DAVISVP2,2013-07-09 01:22:00,
2013-07-08 21:28:00,73.0,68.9,30.06,SSW,209,0.0,0.0,87,0.00,,,0.00,WUHU216DAVISVP2,2013-07-09 01:28:00,
2013-07-08 21:33:00,72.8,69.0,30.06,SSW,210,0.0,0.0,88,0.00,,,0.00,WUHU216DAVISVP2,2013-07-09 01:33:00,
2013-07-08 21:38:00,72.5,68.7,30.06,SSW,209,0.0,0.0,88,0.00,,,0.00,WUHU216DAVISVP2,2013-07-09 01:38:00,
2013-07-08 21:43:00,72.3,68.9,30.06,SSW,209,0.0,0.0,89,0.00,,,0.00,WUHU216DAVISVP2,2013-07-09 01:43:00,
2013-07-08 21:48:00,72.1,68.7,30.06,SSW,209,0.0,0.0,89,0.00,,,0.00,WUHU216DAVISVP2,2013-07-09 01:48:00,
2013-07-08 21:53:00,71.9,68.8,30.06,SSW,209,0.0,0.0,90,0.00,,,0.00,WUHU216DAVISVP2,2013-07-09 01:53:00,
2013-07-08 21:59:00,71.7,68.6,30.06,SSW,209,0.0,0.0,90,0.00,,,0.00,WUHU216DAVISVP2,2013-07-09 01:59:00,
2013-07-08 22:04:00,71.5,68.4,30.06,SSW,209,0.0,0.0,90,0.00,,,0.00,WUHU216DAVISVP2,2013-07-09 02:04:00,
2013-07-08 22:09:00,71.3,68.2,30.07,SSW,209,0.0,0.0,90,0.00,,,0.00,WUHU216DAVISVP2,2013-07-09 02:09:00,
2013-07-08 22:14:00,71.1,68.0,30.07,SSW,209,0.0,0.0,90,0.00,,,0.00,WUHU216DAVISVP2,2013-07-09 02:14:00,
2013-07-08 22:19:00,70.9,68.1,30.07,SSW,209,0.0,0.0,91,0.00,,,0.00,WUHU216DAVISVP2,2013-07-09 02:19:00,
2013-07-08 22:25:00,70.7,67.9,30.07,SSW,209,0.0,0.0,91,0.00,,,0.00,WUHU216DAVISVP2,2013-07-09 02:25:00,
2013-07-08 22:30:00,70.6,68.1,30.07,SSW,209,0.0,0.0,92,0.00,,,0.00,WUHU216DAVISVP2,2013-07-09 02:30:00,
2013-07-08 22:35:00,70.4,67.9,30.07,SSW,209,0.0,0.0,92,0.00,,,0.00,WUHU216DAVISVP2,2013-07-09 02:35:00,
2013-07-08 22:40:00,70.3,67.8,30.07,SSW,208,0.0,1.0,92,0.00,,,0.00,WUHU216DAVISVP2,2013-07-09 02:40:00,
2013-07-08 22:45:00,70.1,68.0,30.07,SSW,208,0.0,1.0,93,0.00,,,0.00,WUHU216DAVISVP2,2013-07-09 02:45:00,
2013-07-08 22:51:00,70.0,67.9,30.07,SSW,208,0.0,1.0,93,0.00,,,0.00,WUHU216DAVISVP2,2013-07-09 02:51:00,
2013-07-08 22:57:00,69.8,67.7,30.07,SSW,208,0.0,1.0,93,0.00,,,0.00,WUHU216DAVISVP2,2013-07-09 02:57:00,
2013-07-08 23:02:00,69.6,67.5,30.07,SSW,208,0.0,0.0,93,0.00,,,0.00,WUHU216DAVISVP2,2013-07-09 03:02:00,
2013-07-08 23:07:00,69.5,67.7,30.07,SSW,208,0.0,1.0,94,0.00,,,0.00,WUHU216DAVISVP2,2013-07-09 03:07:00,
2013-07-08 23:12:00,69.5,67.7,30.07,SSW,208,0.0,1.0,94,0.00,,,0.00,WUHU216DAVISVP2,2013-07-09 03:12:00,
2013-07-08 23:17:00,69.4,67.6,30.07,SSW,208,0.0,1.0,94,0.00,,,0.00,WUHU216DAVISVP2,2013-07-09 03:17:00,
2013-07-08 23:23:00,69.3,67.5,30.07,SSW,208,0.0,1.0,94,0.00,,,0.00,WUHU216DAVISVP2,2013-07-09 03:23:00,
2013-07-08 23:28:00,69.2,67.4,30.07,SSW,208,0.0,0.0,94,0.00,,,0.00,WUHU216DAVISVP2,2013-07-09 03:28:00,
2013-07-08 23:34:00,69.2,67.4,30.07,SSW,208,0.0,0.0,94,0.00,,,0.00,WUHU216DAVISVP2,2013-07-09 03:34:00,
2013-07-08 23:39:00,69.1,67.6,30.07,SSW,208,0.0,0.0,95,0.00,,,0.00,WUHU216DAVISVP2,2013-07-09 03:39:00,
2013-07-08 23:44:00,69.0,67.5,30.07,SSW,208,0.0,0.0,95,0.00,,,0.00,WUHU216DAVISVP2,2013-07-09 03:44:00,
2013-07-08 23:50:00,69.0,67.5,30.07,SSW,208,0.0,0.0,95,0.00,,,0.00,WUHU216DAVISVP2,2013-07-09 03:50:00,
2013-07-08 23:55:00,68.9,67.4,30.07,SSW,208,0.0,0.0,95,0.00,,,0.00,WUHU216DAVISVP2,2013-07-09 03:55:00,